Dupont, Ohio
Current Conditions -  °F | °C
As of 4:53 PM on Friday 31 Oct 2014 (Local Time) from KDFI Reporting Station
Light Rain Light Rain  
Wind Chill: 31°   Ceiling: 1500
Heat Index: 40°   Visibility: 7mi
Dew Point: 36°   Wind: 17mph
Humidity: 86%   Direction: 10°N
Pressure: 29.94"   Gusts: 31mph
Location:  41.06°N, 84.3°W
Report Text: KDFI 312053Z AUTO 01015G27KT 7SM -RA BKN015 OVC023 04/02 A2994 RMK AO2 PK WND 33029/2017 SLP143 P0004 60007 T00440022 53010 $
Loading
Personal Weather Stations






























Interactive Weather Map
Tropical Storm Tracking
New forecast layout! Learn more

10-Day Weather Forecast

Advertisements
Track Severe Weather on mobile